createdAt,value
2019-04-05T00:00:59.478Z,999.70
2019-04-05T00:01:59.462Z,999.67
2019-04-05T00:02:59.533Z,999.65
2019-04-05T00:03:59.406Z,999.67
2019-04-05T00:04:59.389Z,999.76
2019-04-05T00:05:59.364Z,999.75
2019-04-05T00:06:59.338Z,999.72
2019-04-05T00:07:59.314Z,999.72
2019-04-05T00:08:59.291Z,999.68
2019-04-05T00:09:59.271Z,999.70
2019-04-05T00:10:59.247Z,999.69
2019-04-05T00:11:59.220Z,999.73
2019-04-05T00:12:59.202Z,999.77
2019-04-05T00:13:59.179Z,999.75
2019-04-05T00:14:59.153Z,999.79
2019-04-05T00:15:59.128Z,999.82
2019-04-05T00:16:59.106Z,999.76
2019-04-05T00:17:59.090Z,999.81
2019-04-05T00:18:59.058Z,999.77
2019-04-05T00:19:59.034Z,999.77
2019-04-05T00:20:59.011Z,999.76
2019-04-05T00:21:58.989Z,999.79
2019-04-05T00:22:58.966Z,999.82
2019-04-05T00:23:58.944Z,999.80
2019-04-05T00:24:58.918Z,999.79
2019-04-05T00:25:58.899Z,999.82
2019-04-05T00:26:58.872Z,999.80
2019-04-05T00:27:58.850Z,999.85
2019-04-05T00:28:58.836Z,999.88
2019-04-05T00:29:58.801Z,999.90
2019-04-05T00:30:58.788Z,999.90
2019-04-05T00:31:58.756Z,999.91
2019-04-05T00:32:58.732Z,999.87
2019-04-05T00:33:58.708Z,999.90
2019-04-05T00:34:58.684Z,999.94
2019-04-05T00:35:58.661Z,999.90
2019-04-05T00:36:58.643Z,999.86
2019-04-05T00:37:58.616Z,999.86
2019-04-05T00:38:58.591Z,999.85
2019-04-05T00:39:58.582Z,999.88
2019-04-05T00:40:58.545Z,999.90
2019-04-05T00:41:58.531Z,999.85
2019-04-05T00:42:58.497Z,999.82
2019-04-05T00:43:58.474Z,999.87
2019-04-05T00:44:58.452Z,999.84
2019-04-05T00:45:58.436Z,999.87
2019-04-05T00:46:58.404Z,999.90
2019-04-05T00:47:58.381Z,999.91
2019-04-05T00:48:58.357Z,999.86
2019-04-05T00:49:58.334Z,999.85
2019-04-05T00:50:58.317Z,999.87
2019-04-05T00:51:58.288Z,999.90
2019-04-05T00:52:58.264Z,999.93
2019-04-05T00:53:58.245Z,999.93
2019-04-05T00:54:58.218Z,999.95
2019-04-05T00:55:58.204Z,999.91
2019-04-05T00:56:58.172Z,999.99
2019-04-05T00:57:58.149Z,999.96
2019-04-05T00:58:58.124Z,999.98
2019-04-05T00:59:58.105Z,999.96
2019-04-05T01:00:58.228Z,1000.00
2019-04-05T01:01:58.055Z,999.96
2019-04-05T01:02:58.030Z,1000.02
2019-04-05T01:03:58.008Z,1000.00
2019-04-05T01:04:57.985Z,1000.00
2019-04-05T01:05:57.961Z,1000.00
2019-04-05T01:06:57.947Z,1000.05
2019-04-05T01:07:57.915Z,1000.03
2019-04-05T01:08:57.899Z,1000.04
2019-04-05T01:09:57.869Z,1000.06
2019-04-05T01:10:57.847Z,1000.04
2019-04-05T01:11:57.826Z,1000.01
2019-04-05T01:12:57.797Z,1000.05
2019-04-05T01:13:57.775Z,1000.03
2019-04-05T01:14:57.750Z,1000.11
2019-04-05T01:15:57.727Z,1000.07
2019-04-05T01:16:57.706Z,1000.06
2019-04-05T01:17:57.684Z,1000.11
2019-04-05T01:18:57.655Z,1000.15
2019-04-05T01:19:57.633Z,1000.11
2019-04-05T01:20:57.616Z,1000.10
2019-04-05T01:21:57.587Z,1000.12
2019-04-05T01:22:57.573Z,1000.14
2019-04-05T01:23:57.550Z,1000.14
2019-04-05T01:24:57.525Z,1000.17
2019-04-05T01:25:57.494Z,1000.17
2019-04-05T01:26:57.470Z,1000.18
2019-04-05T01:27:57.446Z,1000.16
2019-04-05T01:28:57.422Z,1000.12
2019-04-05T01:29:57.400Z,1000.17
2019-04-05T01:30:57.381Z,1000.17
2019-04-05T01:31:57.353Z,1000.18
2019-04-05T01:32:57.339Z,1000.16
2019-04-05T01:33:57.312Z,1000.18
2019-04-05T01:34:57.282Z,1000.20
2019-04-05T01:35:57.259Z,1000.17
2019-04-05T01:36:57.241Z,1000.21
2019-04-05T01:37:57.219Z,1000.19
2019-04-05T01:38:57.190Z,1000.23
2019-04-05T01:39:57.166Z,1000.23
2019-04-05T01:40:57.158Z,1000.20
2019-04-05T01:41:57.119Z,1000.21
2019-04-05T01:42:57.095Z,1000.20
2019-04-05T01:43:57.072Z,1000.17
2019-04-05T01:44:57.056Z,1000.20
2019-04-05T01:45:57.028Z,1000.16
2019-04-05T01:46:57.001Z,1000.22
2019-04-05T01:47:56.979Z,1000.23
2019-04-05T01:48:56.957Z,1000.25
2019-04-05T01:49:56.936Z,1000.23
2019-04-05T01:50:56.921Z,1000.21
2019-04-05T01:51:56.887Z,1000.26
2019-04-05T01:52:56.871Z,1000.20
2019-04-05T01:53:56.838Z,1000.21
2019-04-05T01:54:56.880Z,1000.22
2019-04-05T01:55:56.794Z,1000.22
2019-04-05T01:56:56.772Z,1000.23
2019-04-05T01:57:56.747Z,1000.22
2019-04-05T01:58:56.725Z,1000.25
2019-04-05T01:59:56.698Z,1000.26
2019-04-05T02:00:56.677Z,1000.26
2019-04-05T02:01:56.753Z,1000.24
2019-04-05T02:02:56.629Z,1000.24
2019-04-05T02:03:56.607Z,1000.25
2019-04-05T02:04:56.633Z,1000.25
2019-04-05T02:05:56.563Z,1000.27
2019-04-05T02:06:56.539Z,1000.24
2019-04-05T02:07:56.512Z,1000.28
2019-04-05T02:08:56.490Z,1000.26
2019-04-05T02:09:56.475Z,1000.30
2019-04-05T02:10:56.442Z,1000.33
2019-04-05T02:11:56.419Z,1000.31
2019-04-05T02:12:56.493Z,1000.33
2019-04-05T02:13:56.372Z,1000.34
2019-04-05T02:14:56.346Z,1000.39
2019-04-05T02:16:05.723Z,1000.38
2019-04-05T02:16:56.301Z,1000.44
2019-04-05T02:17:56.280Z,1000.41
2019-04-05T02:18:56.253Z,1000.43
2019-04-05T02:19:56.231Z,1000.38
2019-04-05T02:20:56.215Z,1000.39
2019-04-05T02:21:56.186Z,1000.32
2019-04-05T02:22:56.158Z,1000.37
2019-04-05T02:23:56.134Z,1000.40
2019-04-05T02:24:56.113Z,1000.40
2019-04-05T02:25:56.090Z,1000.44
2019-04-05T02:26:56.068Z,1000.42
2019-04-05T02:27:56.045Z,1000.46
2019-04-05T02:28:56.020Z,1000.45
2019-04-05T02:29:55.995Z,1000.46
2019-04-05T02:30:55.972Z,1000.45
2019-04-05T02:31:55.955Z,1000.47
2019-04-05T02:32:55.928Z,1000.46
2019-04-05T02:33:55.904Z,1000.54
2019-04-05T02:34:55.900Z,1000.54
2019-04-05T02:35:55.868Z,1000.54
2019-04-05T02:36:55.844Z,1000.52
2019-04-05T02:37:55.858Z,1000.54
2019-04-05T02:38:55.786Z,1000.52
2019-04-05T02:39:55.769Z,1000.53
2019-04-05T02:40:58.483Z,1000.51
2019-04-05T02:41:55.728Z,1000.50
2019-04-05T02:42:55.692Z,1000.44
2019-04-05T02:43:55.666Z,1000.47
2019-04-05T02:44:55.673Z,1000.42
2019-04-05T02:45:55.624Z,1000.44
2019-04-05T02:46:55.612Z,1000.46
2019-04-05T02:47:55.582Z,1000.45
2019-04-05T02:48:55.554Z,1000.43
2019-04-05T02:49:55.555Z,1000.49
2019-04-05T02:50:55.513Z,1000.45
2019-04-05T02:51:55.486Z,1000.49
2019-04-05T02:52:55.456Z,1000.46
2019-04-05T02:53:55.434Z,1000.50
2019-04-05T02:54:55.420Z,1000.52
2019-04-05T02:55:55.386Z,1000.48
2019-04-05T02:56:55.365Z,1000.51
2019-04-05T02:57:55.342Z,1000.52
2019-04-05T02:58:55.315Z,1000.52
2019-04-05T02:59:55.292Z,1000.52
2019-04-05T03:00:55.271Z,1000.54
2019-04-05T03:01:55.246Z,1000.47
2019-04-05T03:02:55.233Z,1000.43
2019-04-05T03:03:55.201Z,1000.42
2019-04-05T03:04:55.175Z,1000.40
2019-04-05T03:05:55.155Z,1000.36
2019-04-05T03:06:55.127Z,1000.40
2019-04-05T03:07:55.107Z,1000.39
2019-04-05T03:08:55.079Z,1000.41
2019-04-05T03:09:55.055Z,1000.40
2019-04-05T03:10:55.033Z,1000.41
2019-04-05T03:11:55.009Z,1000.43
2019-04-05T03:12:54.986Z,1000.41
2019-04-05T03:13:54.971Z,1000.38
2019-04-05T03:14:54.941Z,1000.40
2019-04-05T03:15:54.914Z,1000.39
2019-04-05T03:16:54.891Z,1000.35
2019-04-05T03:17:54.868Z,1000.34
2019-04-05T03:18:54.843Z,1000.29
2019-04-05T03:19:54.821Z,1000.30
2019-04-05T03:20:54.796Z,1000.32
2019-04-05T03:21:54.773Z,1000.34
2019-04-05T03:22:54.832Z,1000.34
2019-04-05T03:23:54.725Z,1000.37
2019-04-05T03:24:54.708Z,1000.40
2019-04-05T03:25:54.683Z,1000.40
2019-04-05T03:26:54.654Z,1000.45
2019-04-05T03:27:54.643Z,1000.44
2019-04-05T03:28:54.629Z,1000.36
2019-04-05T03:29:54.592Z,1000.33
2019-04-05T03:30:54.562Z,1000.37
2019-04-05T03:31:54.625Z,1000.30
2019-04-05T03:32:54.515Z,1000.29
2019-04-05T03:33:54.494Z,1000.33
2019-04-05T03:34:54.475Z,1000.34
2019-04-05T03:35:54.446Z,1000.33
2019-04-05T03:36:54.425Z,1000.31
2019-04-05T03:37:54.398Z,1000.32
2019-04-05T03:38:54.376Z,1000.37
2019-04-05T03:39:54.357Z,1000.32
2019-04-05T03:40:54.333Z,1000.34
2019-04-05T03:41:54.318Z,1000.35
2019-04-05T03:42:54.290Z,1000.34
2019-04-05T03:43:54.255Z,1000.35
2019-04-05T03:44:54.232Z,1000.37
2019-04-05T03:45:54.205Z,1000.34
2019-04-05T03:46:57.022Z,1000.30
2019-04-05T03:47:54.159Z,1000.35
2019-04-05T03:48:54.136Z,1000.31
2019-04-05T03:49:54.113Z,1000.33
2019-04-05T03:50:54.090Z,1000.34
2019-04-05T03:51:54.068Z,1000.34
2019-04-05T03:52:54.045Z,1000.29
2019-04-05T03:53:54.018Z,1000.30
2019-04-05T03:54:53.999Z,1000.33
2019-04-05T03:55:53.969Z,1000.30
2019-04-05T03:56:53.948Z,1000.30
2019-04-05T03:57:53.935Z,1000.36
2019-04-05T03:58:53.900Z,1000.39
2019-04-05T03:59:53.876Z,1000.40
2019-04-05T04:00:53.851Z,1000.39
2019-04-05T04:01:53.831Z,1000.43
2019-04-05T04:02:53.806Z,1000.42
2019-04-05T04:03:53.782Z,1000.41
2019-04-05T04:04:53.759Z,1000.38
2019-04-05T04:05:53.742Z,1000.40
2019-04-05T04:06:53.716Z,1000.41
2019-04-05T04:07:53.703Z,1000.47
2019-04-05T04:08:53.661Z,1000.49
2019-04-05T04:09:53.640Z,1000.46
2019-04-05T04:10:53.615Z,1000.45
2019-04-05T04:11:53.598Z,1000.46
2019-04-05T04:12:53.568Z,1000.50
2019-04-05T04:13:53.557Z,1000.57
2019-04-05T04:14:53.528Z,1000.55
2019-04-05T04:15:53.498Z,1000.57
2019-04-05T04:16:53.511Z,1000.51
2019-04-05T04:17:53.450Z,1000.50
2019-04-05T04:18:53.429Z,1000.49
2019-04-05T04:19:53.402Z,1000.40
2019-04-05T04:20:53.389Z,1000.41
2019-04-05T04:21:53.356Z,1000.41
2019-04-05T04:22:53.333Z,1000.41
2019-04-05T04:23:53.307Z,1000.44
2019-04-05T04:24:53.289Z,1000.46
2019-04-05T04:25:53.272Z,1000.44
2019-04-05T04:26:53.237Z,1000.42
2019-04-05T04:27:53.216Z,1000.41
2019-04-05T04:28:53.205Z,1000.46
2019-04-05T04:29:53.166Z,1000.47
2019-04-05T04:30:53.147Z,1000.46
2019-04-05T04:31:53.121Z,1000.48
2019-04-05T04:32:53.096Z,1000.53
2019-04-05T04:33:53.083Z,1000.56
2019-04-05T04:34:53.054Z,1000.53
2019-04-05T04:35:53.024Z,1000.52
2019-04-05T04:36:53.012Z,1000.53
2019-04-05T04:37:52.978Z,1000.47
2019-04-05T04:38:52.957Z,1000.46
2019-04-05T04:39:52.938Z,1000.50
2019-04-05T04:40:52.907Z,1000.50
2019-04-05T04:41:52.883Z,1000.50
2019-04-05T04:42:52.867Z,1000.48
2019-04-05T04:43:52.834Z,1000.49
2019-04-05T04:44:52.819Z,1000.52
2019-04-05T04:45:52.789Z,1000.53
2019-04-05T04:46:52.770Z,1000.54
2019-04-05T04:47:52.740Z,1000.58
2019-04-05T04:48:52.716Z,1000.56
2019-04-05T04:49:52.709Z,1000.61
2019-04-05T04:50:52.666Z,1000.59
2019-04-05T04:51:52.645Z,1000.61
2019-04-05T04:52:52.619Z,1000.65
2019-04-05T04:53:52.597Z,1000.65
2019-04-05T04:54:52.571Z,1000.73
2019-04-05T04:55:52.558Z,1000.70
2019-04-05T04:56:52.535Z,1000.67
2019-04-05T04:57:52.519Z,1000.68
2019-04-05T04:58:52.478Z,1000.67
2019-04-05T04:59:52.454Z,1000.69
2019-04-05T05:00:52.431Z,1000.72
2019-04-05T05:01:52.407Z,1000.73
2019-04-05T05:02:52.384Z,1000.74
2019-04-05T05:03:52.367Z,1000.79
2019-04-05T05:04:52.343Z,1000.75
2019-04-05T05:05:52.312Z,1000.75
2019-04-05T05:06:52.288Z,1000.73
2019-04-05T05:07:52.264Z,1000.73
2019-04-05T05:08:52.245Z,1000.74
2019-04-05T05:09:52.227Z,1000.74
2019-04-05T05:10:52.194Z,1000.78
2019-04-05T05:11:52.189Z,1000.77
2019-04-05T05:12:52.149Z,1000.76
2019-04-05T05:13:52.128Z,1000.80
2019-04-05T05:14:52.099Z,1000.78
2019-04-05T05:15:52.078Z,1000.81
2019-04-05T05:16:52.052Z,1000.86
2019-04-05T05:17:58.455Z,1000.88
2019-04-05T05:18:52.008Z,1000.90
2019-04-05T05:19:51.988Z,1000.91
2019-04-05T05:20:51.956Z,1000.92
2019-04-05T05:21:51.933Z,1000.94
2019-04-05T05:22:51.909Z,1000.95
2019-04-05T05:23:51.891Z,1000.98
2019-04-05T05:24:51.869Z,1000.99
2019-04-05T05:25:51.838Z,1000.96
2019-04-05T05:26:51.814Z,1000.93
2019-04-05T05:27:51.798Z,1000.93
2019-04-05T05:28:51.766Z,1000.93
2019-04-05T05:29:51.754Z,1000.94
2019-04-05T05:30:51.719Z,1000.93
2019-04-05T05:31:51.696Z,1000.97
2019-04-05T05:32:51.673Z,1000.99
2019-04-05T05:33:51.665Z,1001.03
2019-04-05T05:35:01.303Z,1000.98
2019-04-05T05:35:51.609Z,1001.02
2019-04-05T05:36:51.585Z,1001.06
2019-04-05T05:37:51.554Z,1001.11
2019-04-05T05:38:51.528Z,1001.12
2019-04-05T05:39:51.507Z,1001.12
2019-04-05T05:40:51.484Z,1001.06
2019-04-05T05:41:51.457Z,1001.12
2019-04-05T05:42:51.434Z,1001.11
2019-04-05T05:43:51.410Z,1001.12
2019-04-05T05:44:51.388Z,1001.12
2019-04-05T05:45:51.368Z,1001.09
2019-04-05T05:46:51.345Z,1001.08
2019-04-05T05:47:52.495Z,1001.09
2019-04-05T05:48:51.446Z,1001.06
2019-04-05T05:49:51.274Z,1001.06
2019-04-05T05:50:51.251Z,1001.03
2019-04-05T05:51:51.224Z,1001.02
2019-04-05T05:52:51.198Z,1000.99
2019-04-05T05:53:51.175Z,1000.99
2019-04-05T05:54:51.153Z,1001.02
2019-04-05T05:55:51.127Z,1001.01
2019-04-05T05:56:51.105Z,1001.04
2019-04-05T05:57:54.359Z,1001.07
2019-04-05T05:58:51.054Z,1001.02
2019-04-05T05:59:51.035Z,1001.03
2019-04-05T06:00:51.009Z,1001.02
2019-04-05T06:01:50.984Z,1001.06
2019-04-05T06:02:50.962Z,1001.09
2019-04-05T06:03:50.937Z,1001.14
2019-04-05T06:04:50.915Z,1001.15
2019-04-05T06:06:03.251Z,1001.17
2019-04-05T06:06:50.867Z,1001.20
2019-04-05T06:07:50.842Z,1001.19
2019-04-05T06:08:50.828Z,1001.23
2019-04-05T06:09:50.806Z,1001.26
2019-04-05T06:10:50.782Z,1001.24
2019-04-05T06:11:50.753Z,1001.24
2019-04-05T06:12:50.726Z,1001.27
2019-04-05T06:13:50.703Z,1001.26
2019-04-05T06:14:50.677Z,1001.30
2019-04-05T06:15:50.656Z,1001.33
2019-04-05T06:16:50.638Z,1001.33
2019-04-05T06:18:03.838Z,1001.34
2019-04-05T06:18:50.585Z,1001.36
2019-04-05T06:19:50.561Z,1001.33
2019-04-05T06:20:50.537Z,1001.34
2019-04-05T06:21:50.528Z,1001.33
2019-04-05T06:22:50.501Z,1001.35
2019-04-05T06:23:50.466Z,1001.37
2019-04-05T06:24:50.560Z,1001.34
2019-04-05T06:25:50.422Z,1001.26
2019-04-05T06:26:50.395Z,1001.28
2019-04-05T06:27:50.383Z,1001.28
2019-04-05T06:28:50.477Z,1001.31
2019-04-05T06:29:50.326Z,1001.26
2019-04-05T06:30:50.302Z,1001.33
2019-04-05T06:31:50.293Z,1001.28
2019-04-05T06:32:50.260Z,1001.28
2019-04-05T06:33:50.234Z,1001.22
2019-04-05T06:34:50.230Z,1001.23
2019-04-05T06:35:50.190Z,1001.22
2019-04-05T06:36:51.289Z,1001.23
2019-04-05T06:37:50.141Z,1001.22
2019-04-05T06:38:50.115Z,1001.25
2019-04-05T06:39:50.093Z,1001.28
2019-04-05T06:40:50.072Z,1001.23
2019-04-05T06:41:50.048Z,1001.27
2019-04-05T06:42:50.023Z,1001.26
2019-04-05T06:43:50.114Z,1001.19
2019-04-05T06:44:49.977Z,1001.21
2019-04-05T06:45:50.034Z,1001.17
2019-04-05T06:46:49.931Z,1001.15
2019-04-05T06:47:49.910Z,1001.16
2019-04-05T06:48:49.885Z,1001.19
2019-04-05T06:49:49.865Z,1001.20
2019-04-05T06:50:49.839Z,1001.18
2019-04-05T06:51:49.819Z,1001.22
2019-04-05T06:52:49.804Z,1001.24
2019-04-05T06:53:49.771Z,1001.26
2019-04-05T06:54:49.746Z,1001.25
2019-04-05T06:55:49.733Z,1001.26
2019-04-05T06:56:49.707Z,1001.23
2019-04-05T06:57:49.789Z,1001.29
2019-04-05T06:58:49.670Z,1001.32
2019-04-05T06:59:49.633Z,1001.34
2019-04-05T07:00:56.897Z,1001.39
2019-04-05T07:01:49.591Z,1001.36
2019-04-05T07:02:49.564Z,1001.35
2019-04-05T07:03:49.542Z,1001.34
2019-04-05T07:04:49.518Z,1001.37
2019-04-05T07:05:49.504Z,1001.35
2019-04-05T07:06:49.471Z,1001.38
2019-04-05T07:07:49.463Z,1001.38
2019-04-05T07:08:53.851Z,1001.42
2019-04-05T07:09:49.404Z,1001.42
2019-04-05T07:10:49.387Z,1001.44
2019-04-05T07:11:49.361Z,1001.47
2019-04-05T07:12:49.396Z,1001.50
2019-04-05T07:13:49.321Z,1001.46
2019-04-05T07:14:49.290Z,1001.48
2019-04-05T07:15:49.269Z,1001.48
2019-04-05T07:16:49.245Z,1001.52
2019-04-05T07:17:49.223Z,1001.54
2019-04-05T07:18:49.206Z,1001.53
2019-04-05T07:19:49.176Z,1001.51
2019-04-05T07:20:49.223Z,1001.53
2019-04-05T07:21:49.139Z,1001.52
2019-04-05T07:22:49.167Z,1001.50
2019-04-05T07:23:49.087Z,1001.54
2019-04-05T07:24:49.632Z,1001.52
2019-04-05T07:25:49.042Z,1001.51
2019-04-05T07:26:49.025Z,1001.53
2019-04-05T07:27:49.000Z,1001.55
2019-04-05T07:28:48.979Z,1001.53
2019-04-05T07:29:48.959Z,1001.59
2019-04-05T07:30:48.926Z,1001.55
2019-04-05T07:31:48.906Z,1001.54
2019-04-05T07:32:48.882Z,1001.59
2019-04-05T07:33:48.858Z,1001.53
2019-04-05T07:34:48.839Z,1001.53
2019-04-05T07:35:48.816Z,1001.54
2019-04-05T07:36:48.793Z,1001.55
2019-04-05T07:37:48.775Z,1001.57
2019-04-05T07:38:48.746Z,1001.53
2019-04-05T07:39:48.732Z,1001.53
2019-04-05T07:40:48.705Z,1001.52
2019-04-05T07:41:48.685Z,1001.55
2019-04-05T07:42:48.661Z,1001.54
2019-04-05T07:43:48.634Z,1001.54
2019-04-05T07:44:48.616Z,1001.51
2019-04-05T07:45:48.592Z,1001.55
2019-04-05T07:46:48.568Z,1001.53
2019-04-05T07:47:48.545Z,1001.54
2019-04-05T07:48:48.537Z,1001.56
2019-04-05T07:49:48.500Z,1001.52
2019-04-05T07:50:48.486Z,1001.56
2019-04-05T07:51:48.456Z,1001.53
2019-04-05T07:52:48.442Z,1001.55
2019-04-05T07:53:48.432Z,1001.55
2019-04-05T07:54:48.390Z,1001.57
2019-04-05T07:55:48.375Z,1001.55
2019-04-05T07:56:48.347Z,1001.54
2019-04-05T07:57:48.330Z,1001.51
2019-04-05T07:58:48.310Z,1001.53
2019-04-05T07:59:48.288Z,1001.52
2019-04-05T08:00:48.266Z,1001.47
2019-04-05T08:01:48.294Z,1001.42
2019-04-05T08:02:48.213Z,1001.45
2019-04-05T08:03:48.192Z,1001.49
2019-04-05T08:04:48.185Z,1001.47
2019-04-05T08:05:48.153Z,1001.47
2019-04-05T08:06:48.125Z,1001.42
2019-04-05T08:07:48.106Z,1001.47
2019-04-05T08:08:48.083Z,1001.48
2019-04-05T08:09:48.062Z,1001.48
2019-04-05T08:10:48.039Z,1001.49
2019-04-05T08:11:48.026Z,1001.52
2019-04-05T08:12:48.027Z,1001.53
2019-04-05T08:13:47.991Z,1001.50
2019-04-05T08:14:47.954Z,1001.50
2019-04-05T08:15:47.931Z,1001.58
2019-04-05T08:16:47.911Z,1001.58
2019-04-05T08:17:48.003Z,1001.59
2019-04-05T08:18:57.637Z,1001.57
2019-04-05T08:19:47.862Z,1001.59
2019-04-05T08:20:47.836Z,1001.64
2019-04-05T08:21:47.804Z,1001.67
2019-04-05T08:22:47.781Z,1001.68
2019-04-05T08:23:47.761Z,1001.71
2019-04-05T08:24:47.744Z,1001.69
2019-04-05T08:25:47.724Z,1001.72
2019-04-05T08:26:47.697Z,1001.72
2019-04-05T08:27:47.674Z,1001.71
2019-04-05T08:28:47.660Z,1001.73
2019-04-05T08:29:47.634Z,1001.73
2019-04-05T08:30:47.619Z,1001.67
2019-04-05T08:31:47.699Z,1001.65
2019-04-05T08:32:47.580Z,1001.67
2019-04-05T08:33:47.554Z,1001.69
2019-04-05T08:34:47.528Z,1001.74
2019-04-05T08:35:47.511Z,1001.74
2019-04-05T08:36:47.487Z,1001.73
2019-04-05T08:37:47.475Z,1001.75
2019-04-05T08:38:47.446Z,1001.71
2019-04-05T08:39:47.436Z,1001.65
2019-04-05T08:40:47.406Z,1001.71
2019-04-05T08:41:47.395Z,1001.75
2019-04-05T08:42:47.373Z,1001.73
2019-04-05T08:43:47.499Z,1001.77
2019-04-05T08:44:47.331Z,1001.82
2019-04-05T08:45:47.310Z,1001.77
2019-04-05T08:46:47.281Z,1001.81
2019-04-05T08:47:47.260Z,1001.79
2019-04-05T08:48:47.255Z,1001.83
2019-04-05T08:49:47.220Z,1001.76
2019-04-05T08:50:47.202Z,1001.70
2019-04-05T08:51:47.181Z,1001.74
2019-04-05T08:52:47.156Z,1001.68
2019-04-05T08:53:47.134Z,1001.66
2019-04-05T08:54:47.113Z,1001.68
2019-04-05T08:55:47.092Z,1001.67
2019-04-05T08:56:47.073Z,1001.67
2019-04-05T08:57:48.192Z,1001.61
2019-04-05T08:58:47.041Z,1001.64
2019-04-05T08:59:47.107Z,1001.63
2019-04-05T09:00:46.993Z,1001.67
2019-04-05T09:01:46.972Z,1001.65
2019-04-05T09:02:47.054Z,1001.71
2019-04-05T09:03:46.926Z,1001.73
2019-04-05T09:04:46.918Z,1001.70
2019-04-05T09:05:46.886Z,1001.69
2019-04-05T09:06:46.859Z,1001.69
2019-04-05T09:07:46.845Z,1001.69
2019-04-05T09:08:46.822Z,1001.70
2019-04-05T09:09:46.808Z,1001.67
2019-04-05T09:10:46.776Z,1001.69
2019-04-05T09:11:46.759Z,1001.72
2019-04-05T09:12:46.735Z,1001.68
2019-04-05T09:13:46.713Z,1001.73
2019-04-05T09:14:46.694Z,1001.78
2019-04-05T09:15:46.670Z,1001.69
2019-04-05T09:16:46.653Z,1001.73
2019-04-05T09:17:46.630Z,1001.69
2019-04-05T09:18:49.321Z,1001.70
2019-04-05T09:19:46.696Z,1001.70
2019-04-05T09:20:46.571Z,1001.68
2019-04-05T09:21:46.550Z,1001.70
2019-04-05T09:22:46.527Z,1001.69
2019-04-05T09:23:46.500Z,1001.67
2019-04-05T09:24:46.479Z,1001.68
2019-04-05T09:25:46.457Z,1001.66
2019-04-05T09:26:46.437Z,1001.65
2019-04-05T09:27:46.415Z,1001.70
2019-04-05T09:28:46.394Z,1001.69
2019-04-05T09:29:46.374Z,1001.72
2019-04-05T09:30:46.362Z,1001.70
2019-04-05T09:31:46.330Z,1001.73
2019-04-05T09:32:46.313Z,1001.67
2019-04-05T09:33:46.288Z,1001.69
2019-04-05T09:34:46.268Z,1001.71
2019-04-05T09:35:46.339Z,1001.75
2019-04-05T09:36:46.253Z,1001.72
2019-04-05T09:37:46.207Z,1001.76
2019-04-05T09:38:46.197Z,1001.74
2019-04-05T09:39:46.186Z,1001.73
2019-04-05T09:40:46.146Z,1001.78
2019-04-05T09:41:46.122Z,1001.76
2019-04-05T09:42:46.099Z,1001.74
2019-04-05T09:43:46.097Z,1001.73
2019-04-05T09:44:46.070Z,1001.71
2019-04-05T09:45:46.046Z,1001.70
2019-04-05T09:46:50.642Z,1001.70
2019-04-05T09:47:46.006Z,1001.69
2019-04-05T09:48:45.973Z,1001.66
2019-04-05T09:49:45.952Z,1001.72
2019-04-05T09:50:45.937Z,1001.71
2019-04-05T09:51:45.909Z,1001.73
2019-04-05T09:52:45.892Z,1001.73
2019-04-05T09:53:45.873Z,1001.73
2019-04-05T09:54:45.852Z,1001.73
2019-04-05T09:55:45.825Z,1001.73
2019-04-05T09:56:45.803Z,1001.75
2019-04-05T09:57:45.781Z,1001.81
2019-04-05T09:58:45.761Z,1001.84
2019-04-05T09:59:45.738Z,1001.88
2019-04-05T10:00:45.728Z,1001.86
2019-04-05T10:01:45.694Z,1001.81
2019-04-05T10:02:45.674Z,1001.84
2019-04-05T10:03:45.662Z,1001.78
2019-04-05T10:04:45.633Z,1001.75
2019-04-05T10:05:45.612Z,1001.75
2019-04-05T10:06:45.589Z,1001.75
2019-04-05T10:07:55.006Z,1001.74
2019-04-05T10:08:45.555Z,1001.76
2019-04-05T10:09:45.526Z,1001.74
2019-04-05T10:10:45.514Z,1001.77
2019-04-05T10:11:45.486Z,1001.74
2019-04-05T10:12:45.468Z,1001.75
2019-04-05T10:13:45.467Z,1001.73
2019-04-05T10:14:45.433Z,1001.75
2019-04-05T10:15:45.404Z,1001.77
2019-04-05T10:16:45.375Z,1001.78
2019-04-05T10:17:45.356Z,1001.79
2019-04-05T10:18:45.344Z,1001.79
2019-04-05T10:19:50.154Z,1001.75
2019-04-05T10:20:45.292Z,1001.76
2019-04-05T10:21:45.438Z,1001.73
2019-04-05T10:22:45.249Z,1001.72
2019-04-05T10:23:45.231Z,1001.74
2019-04-05T10:24:45.314Z,1001.70
2019-04-05T10:25:45.186Z,1001.70
2019-04-05T10:26:45.163Z,1001.68
2019-04-05T10:27:45.147Z,1001.71
2019-04-05T10:28:45.122Z,1001.67
2019-04-05T10:29:45.109Z,1001.69
2019-04-05T10:30:45.082Z,1001.66
2019-04-05T10:31:45.058Z,1001.69
2019-04-05T10:32:46.249Z,1001.65
2019-04-05T10:33:45.022Z,1001.68
2019-04-05T10:34:44.995Z,1001.66
2019-04-05T10:35:44.976Z,1001.67
2019-04-05T10:36:44.956Z,1001.68
2019-04-05T10:37:44.947Z,1001.67
2019-04-05T10:38:44.909Z,1001.71
2019-04-05T10:39:44.889Z,1001.71
2019-04-05T10:40:44.867Z,1001.74
2019-04-05T10:41:44.848Z,1001.74
2019-04-05T10:42:44.832Z,1001.77
2019-04-05T10:43:44.808Z,1001.75
2019-04-05T10:44:44.795Z,1001.73
2019-04-05T10:45:44.761Z,1001.74
2019-04-05T10:46:44.745Z,1001.69
2019-04-05T10:47:44.744Z,1001.67
2019-04-05T10:48:44.701Z,1001.71
2019-04-05T10:49:44.680Z,1001.68
2019-04-05T10:50:44.656Z,1001.70
2019-04-05T10:51:44.635Z,1001.70
2019-04-05T10:52:44.615Z,1001.64
2019-04-05T10:53:44.592Z,1001.66
2019-04-05T10:54:44.586Z,1001.64
2019-04-05T10:55:44.550Z,1001.63
2019-04-05T10:56:44.538Z,1001.62
2019-04-05T10:57:44.518Z,1001.60
2019-04-05T10:58:44.488Z,1001.61
2019-04-05T10:59:44.469Z,1001.61
2019-04-05T11:00:44.501Z,1001.63
2019-04-05T11:01:44.436Z,1001.59
2019-04-05T11:02:44.407Z,1001.60
2019-04-05T11:03:44.393Z,1001.62
2019-04-05T11:04:44.367Z,1001.65
2019-04-05T11:05:44.348Z,1001.65
2019-04-05T11:06:44.322Z,1001.65
2019-04-05T11:07:44.302Z,1001.65
2019-04-05T11:08:44.283Z,1001.62
2019-04-05T11:09:44.259Z,1001.63
2019-04-05T11:10:44.236Z,1001.62
2019-04-05T11:11:44.216Z,1001.62
2019-04-05T11:12:44.204Z,1001.63
2019-04-05T11:13:44.177Z,1001.66
2019-04-05T11:14:44.172Z,1001.67
2019-04-05T11:15:44.142Z,1001.70
2019-04-05T11:16:44.115Z,1001.69
2019-04-05T11:17:44.094Z,1001.65
2019-04-05T11:18:45.213Z,1001.64
2019-04-05T11:19:44.048Z,1001.67
2019-04-05T11:20:44.029Z,1001.64
2019-04-05T11:21:44.014Z,1001.63
2019-04-05T11:22:46.553Z,1001.66
2019-04-05T11:23:43.966Z,1001.62
2019-04-05T11:24:43.945Z,1001.64
2019-04-05T11:25:43.927Z,1001.63
2019-04-05T11:26:43.913Z,1001.64
2019-04-05T11:27:43.887Z,1001.66
2019-04-05T11:28:43.866Z,1001.68
2019-04-05T11:29:43.843Z,1001.68
2019-04-05T11:30:43.836Z,1001.65
2019-04-05T11:31:55.913Z,1001.65
2019-04-05T11:32:43.793Z,1001.67
2019-04-05T11:33:43.759Z,1001.68
2019-04-05T11:34:43.737Z,1001.63
2019-04-05T11:35:43.726Z,1001.69
2019-04-05T11:36:43.694Z,1001.67
2019-04-05T11:37:43.679Z,1001.69
2019-04-05T11:38:43.653Z,1001.68
2019-04-05T11:39:43.633Z,1001.73
2019-04-05T11:40:43.629Z,1001.75
2019-04-05T11:41:43.593Z,1001.72
2019-04-05T11:42:43.578Z,1001.73
2019-04-05T11:43:43.548Z,1001.80
2019-04-05T11:44:43.530Z,1001.81
2019-04-05T11:45:43.514Z,1001.77
2019-04-05T11:46:43.491Z,1001.79
2019-04-05T11:47:43.463Z,1001.81
2019-04-05T11:48:43.448Z,1001.77
2019-04-05T11:49:43.431Z,1001.81
2019-04-05T11:50:43.402Z,1001.77
2019-04-05T11:51:43.381Z,1001.72
2019-04-05T11:52:43.361Z,1001.68
2019-04-05T11:53:43.339Z,1001.67
2019-04-05T11:54:43.839Z,1001.66
2019-04-05T11:55:46.274Z,1001.64
2019-04-05T11:56:43.275Z,1001.67
2019-04-05T11:57:43.257Z,1001.69
2019-04-05T11:58:43.235Z,1001.67
2019-04-05T11:59:43.216Z,1001.65
2019-04-05T12:00:43.197Z,1001.68
2019-04-05T12:01:43.188Z,1001.62
2019-04-05T12:02:43.157Z,1001.62
2019-04-05T12:03:43.135Z,1001.64
2019-04-05T12:04:43.113Z,1001.65
2019-04-05T12:05:43.096Z,1001.62
2019-04-05T12:06:43.066Z,1001.62
2019-04-05T12:07:43.046Z,1001.65